Time;durP1;ratioP1;P1;durP2;ratioP2;P2;SDS_P1;SDS_P2;PMS_P1;PMS_P2;Temp;Humidity;BMP_temperature;BMP_pressure;BME280_temperature;BME280_humidity;BME280_pressure;Samples;Min_cycle;Max_cycle;Signal;HPM_P1;HPM_P2
2024/03/04 00:01:58;;;;;;;13.20;4.55;;;8.80;99.90;;;;;;4926310;29;20111;-92
2024/03/04 00:04:24;;;;;;;9.18;4.13;;;9.70;99.90;;;;;;4919248;29;20119;-94
2024/03/04 00:06:49;;;;;;;16.13;4.85;;;8.80;99.90;;;;;;4918719;29;20035;-93
2024/03/04 00:09:15;;;;;;;10.38;4.30;;;9.40;99.90;;;;;;4906670;29;20032;-93
2024/03/04 00:11:41;;;;;;;15.30;4.47;;;8.90;99.90;;;;;;4900028;29;20055;-94
2024/03/04 00:14:07;;;;;;;9.40;3.47;;;8.90;99.90;;;;;;4901032;29;20112;-93
2024/03/04 00:16:33;;;;;;;12.68;3.97;;;8.80;99.90;;;;;;4903550;29;20028;-94
2024/03/04 00:18:58;;;;;;;11.32;4.30;;;8.80;99.90;;;;;;4920005;29;20039;-91
2024/03/04 00:21:24;;;;;;;14.30;4.55;;;8.80;99.90;;;;;;4921363;29;20028;-93
2024/03/04 00:23:51;;;;;;;6.70;4.00;;;8.70;99.90;;;;;;4928602;29;20031;-96
2024/03/04 00:26:16;;;;;;;12.45;5.00;;;8.90;99.90;;;;;;4941249;29;20027;-91
2024/03/04 00:28:42;;;;;;;17.58;6.18;;;8.80;99.90;;;;;;4942871;29;20033;-93
2024/03/04 00:31:07;;;;;;;12.65;4.72;;;8.80;99.90;;;;;;4939297;28;20043;-93
2024/03/04 00:33:33;;;;;;;8.82;4.43;;;8.80;99.90;;;;;;4943432;29;20039;-92
2024/03/04 00:35:58;;;;;;;13.65;5.18;;;8.70;99.90;;;;;;4937845;29;20092;-93
2024/03/04 00:38:24;;;;;;;15.57;5.03;;;8.70;99.90;;;;;;4932683;29;20063;-93
2024/03/04 00:40:49;;;;;;;14.07;6.18;;;8.70;99.90;;;;;;4926018;29;20038;-92
2024/03/04 00:43:15;;;;;;;15.23;5.25;;;8.70;99.90;;;;;;4923449;29;20119;-92
2024/03/04 00:45:41;;;;;;;11.18;6.10;;;8.70;99.90;;;;;;4927704;29;20028;-93
2024/03/04 00:48:07;;;;;;;16.52;6.25;;;8.80;99.90;;;;;;4930330;29;20039;-94
2024/03/04 00:50:33;;;;;;;15.45;6.20;;;8.80;99.90;;;;;;4921644;29;20441;-91
2024/03/04 00:52:58;;;;;;;11.82;5.47;;;8.80;99.90;;;;;;4920937;29;20039;-94
2024/03/04 00:55:25;;;;;;;13.48;5.90;;;8.80;99.90;;;;;;4919104;29;20048;-91
2024/03/04 00:57:51;;;;;;;10.35;5.55;;;8.70;99.90;;;;;;4919572;29;20035;-93
2024/03/04 01:00:17;;;;;;;12.35;4.97;;;8.80;99.90;;;;;;4918238;29;20028;-93
2024/03/04 01:02:43;;;;;;;11.90;4.80;;;8.80;99.90;;;;;;4918246;29;20028;-91
2024/03/04 01:05:09;;;;;;;11.55;5.18;;;8.80;99.90;;;;;;4919071;29;20036;-92
2024/03/04 01:07:35;;;;;;;8.07;4.72;;;8.70;99.90;;;;;;4919333;29;20024;-93
2024/03/04 01:10:00;;;;;;;8.13;4.95;;;8.70;99.90;;;;;;4917626;29;20039;-93
2024/03/04 01:12:26;;;;;;;7.15;4.95;;;8.70;99.90;;;;;;4918866;29;20389;-92
2024/03/04 01:14:52;;;;;;;9.88;4.90;;;8.70;99.90;;;;;;4918762;29;20041;-92
2024/03/04 01:17:17;;;;;;;9.25;4.80;;;8.70;99.90;;;;;;4918814;29;20027;-92
2024/03/04 01:19:46;;;;;;;14.25;4.95;;;8.60;99.90;;;;;;4918885;29;20040;-93
2024/03/04 01:22:14;;;;;;;6.88;3.28;;;8.60;99.90;;;;;;4919362;29;20025;-93
2024/03/04 01:24:39;;;;;;;14.50;4.55;;;8.60;99.90;;;;;;4920241;29;20109;-92
2024/03/04 01:27:06;;;;;;;7.95;3.95;;;8.60;99.90;;;;;;4920148;29;20053;-93
2024/03/04 01:29:32;;;;;;;8.85;3.85;;;8.70;99.90;;;;;;4921984;29;20433;-92
2024/03/04 01:31:58;;;;;;;8.27;2.78;;;8.70;99.90;;;;;;4921520;29;20107;-92
2024/03/04 01:34:24;;;;;;;2.95;2.42;;;8.70;99.90;;;;;;4921782;29;20048;-94
2024/03/04 01:36:50;;;;;;;4.20;2.85;;;8.60;99.90;;;;;;4922921;29;20016;-92
2024/03/04 01:39:18;;;;;;;8.32;3.58;;;8.70;99.90;;;;;;4908614;29;20049;-93
2024/03/04 01:41:43;;;;;;;3.00;2.20;;;8.70;99.90;;;;;;4918633;29;20036;-93
2024/03/04 01:44:11;;;;;;;2.70;2.50;;;8.70;99.90;;;;;;4937323;29;20029;-92
2024/03/04 01:46:36;;;;;;;4.50;2.72;;;8.60;99.90;;;;;;4936967;29;20032;-93
2024/03/04 01:49:03;;;;;;;10.13;3.55;;;8.70;99.90;;;;;;4947876;29;20038;-93
2024/03/04 01:51:29;;;;;;;4.72;3.05;;;8.60;99.90;;;;;;4948029;29;20024;-93
2024/03/04 01:53:55;;;;;;;7.65;3.35;;;8.60;99.90;;;;;;4943604;29;20050;-93
2024/03/04 01:56:21;;;;;;;6.18;3.05;;;8.70;99.90;;;;;;4942877;29;20027;-93
2024/03/04 01:58:48;;;;;;;5.20;3.08;;;8.70;99.90;;;;;;4918905;29;20048;-93
2024/03/04 02:01:14;;;;;;;8.00;3.35;;;8.70;99.90;;;;;;4905915;29;20044;-93
2024/03/04 02:03:40;;;;;;;7.10;2.72;;;8.60;99.90;;;;;;4907082;29;20569;-92
2024/03/04 02:06:08;;;;;;;9.73;2.13;;;8.70;99.90;;;;;;4908623;29;20048;-94
2024/03/04 02:08:35;;;;;;;10.13;2.15;;;8.70;99.90;;;;;;4901125;29;20048;-94
2024/03/04 02:11:03;;;;;;;5.38;1.92;;;8.70;99.90;;;;;;4916850;29;20032;-93
2024/03/04 02:13:31;;;;;;;7.38;1.42;;;8.60;99.90;;;;;;4920036;29;20036;-93
2024/03/04 02:15:56;;;;;;;5.68;1.70;;;8.70;99.90;;;;;;4919511;29;20034;-93
2024/03/04 02:18:22;;;;;;;9.23;1.67;;;8.60;99.90;;;;;;4920717;29;20032;-93
2024/03/04 02:20:53;;;;;;;8.27;1.25;;;8.60;99.90;;;;;;4924034;29;20024;-93
2024/03/04 02:23:18;;;;;;;;;;;8.60;99.90;;;;;;4922869;29;20099;-94
2024/03/04 02:25:54;;;;;;;6.45;1.40;;;8.60;99.90;;;;;;4907480;29;19908;-93
2024/03/04 02:28:22;;;;;;;5.22;1.52;;;8.60;99.90;;;;;;4903775;29;20040;-93
2024/03/04 02:30:47;;;;;;;3.25;1.35;;;8.50;99.90;;;;;;4903708;29;20033;-94
2024/03/04 02:33:15;;;;;;;3.70;1.20;;;8.60;99.90;;;;;;4903687;29;20126;-93
2024/03/04 02:35:41;;;;;;;3.13;1.10;;;8.50;99.90;;;;;;4902609;29;20057;-94
2024/03/04 02:38:08;;;;;;;6.53;1.90;;;8.50;99.90;;;;;;4903624;29;20056;-93
2024/03/04 02:40:34;;;;;;;3.10;1.30;;;8.50;99.90;;;;;;4903261;29;20028;-94
2024/03/04 02:42:59;;;;;;;3.30;1.40;;;8.50;99.90;;;;;;4907842;29;20028;-94
2024/03/04 02:45:25;;;;;;;4.97;1.00;;;8.50;99.90;;;;;;4921384;29;20052;-94
2024/03/04 02:47:51;;;;;;;5.07;0.90;;;8.50;99.90;;;;;;4920341;29;20063;-94
2024/03/04 02:50:16;;;;;;;5.88;1.45;;;8.40;99.90;;;;;;4922399;29;20376;-92
2024/03/04 02:52:44;;;;;;;3.10;1.00;;;8.50;99.90;;;;;;4920584;29;20119;-93
2024/03/04 02:55:09;;;;;;;3.40;0.90;;;8.50;99.90;;;;;;4922018;29;20047;-93
2024/03/04 02:57:35;;;;;;;3.03;0.70;;;8.40;99.90;;;;;;4921251;29;20028;-93
2024/03/04 03:00:01;;;;;;;2.97;0.60;;;8.40;99.90;;;;;;4919737;29;20024;-92
2024/03/04 03:02:26;;;;;;;3.15;0.70;;;8.40;99.90;;;;;;4909661;29;20040;-93
2024/03/04 03:04:52;;;;;;;4.43;1.25;;;8.40;99.90;;;;;;4900615;29;20072;-95
2024/03/04 03:07:18;;;;;;;2.45;0.55;;;8.40;99.90;;;;;;4905025;29;20036;-93
2024/03/04 03:09:44;;;;;;;6.22;0.73;;;8.40;99.90;;;;;;4909780;29;20029;-93
2024/03/04 03:12:10;;;;;;;1.58;0.50;;;8.50;99.90;;;;;;4902814;29;20112;-94
2024/03/04 03:14:36;;;;;;;2.50;0.50;;;8.50;99.90;;;;;;4909858;29;20041;-94
2024/03/04 03:17:02;;;;;;;3.13;0.70;;;8.50;99.90;;;;;;4900754;29;20033;-92
2024/03/04 03:19:28;;;;;;;3.17;0.93;;;8.60;99.90;;;;;;4902416;29;20028;-95
2024/03/04 03:21:55;;;;;;;2.05;0.75;;;8.50;99.90;;;;;;4913545;29;20091;-94
2024/03/04 03:24:24;;;;;;;2.97;1.08;;;8.50;99.90;;;;;;4920875;29;20038;-93
2024/03/04 03:26:50;;;;;;;5.07;1.02;;;8.60;99.90;;;;;;4916974;29;20032;-93
2024/03/04 03:29:16;;;;;;;2.72;0.70;;;8.60;99.90;;;;;;4926905;29;20028;-92
2024/03/04 03:31:42;;;;;;;2.60;0.57;;;8.60;99.90;;;;;;4917782;29;20035;-92
2024/03/04 03:34:08;;;;;;;5.05;1.45;;;8.60;99.90;;;;;;4916186;29;20044;-93
2024/03/04 03:36:38;;;;;;;2.70;0.63;;;8.60;99.90;;;;;;4919806;29;20036;-94
2024/03/04 03:39:04;;;;;;;5.10;0.82;;;8.60;99.90;;;;;;4919857;29;20036;-94
2024/03/04 03:41:30;;;;;;;2.15;0.57;;;8.70;99.90;;;;;;4919393;29;20032;-93
2024/03/04 03:43:56;;;;;;;4.93;0.95;;;8.60;99.90;;;;;;4919759;29;20583;-93
2024/03/04 03:46:22;;;;;;;4.00;1.13;;;8.60;99.90;;;;;;4919220;29;20480;-92
2024/03/04 03:48:47;;;;;;;1.83;0.55;;;8.60;99.90;;;;;;4918783;29;20114;-93
2024/03/04 03:51:13;;;;;;;4.63;0.90;;;8.60;99.90;;;;;;4916358;29;20023;-94
2024/03/04 03:53:38;;;;;;;3.05;0.70;;;8.60;99.90;;;;;;4918737;29;20062;-91
2024/03/04 03:56:05;;;;;;;3.38;0.60;;;8.70;99.90;;;;;;4918747;29;20496;-93
2024/03/04 03:58:31;;;;;;;1.70;0.40;;;8.70;99.90;;;;;;4919113;29;20544;-92
2024/03/04 04:00:58;;;;;;;4.20;0.80;;;8.70;99.90;;;;;;4918472;29;20132;-93
2024/03/04 04:03:23;;;;;;;2.78;0.70;;;8.70;99.90;;;;;;4918987;29;20060;-92
2024/03/04 04:05:49;;;;;;;1.30;0.50;;;8.80;99.90;;;;;;4908751;29;20035;-93
2024/03/04 04:08:15;;;;;;;1.70;0.57;;;8.70;99.90;;;;;;4901516;29;20080;-90
2024/03/04 04:10:40;;;;;;;4.32;0.88;;;8.80;99.90;;;;;;4899754;29;20485;-92
2024/03/04 04:13:06;;;;;;;3.17;1.10;;;8.80;99.90;;;;;;4899332;29;20481;-94
2024/03/04 04:15:32;;;;;;;2.10;0.70;;;9.20;99.90;;;;;;4900068;29;20466;-93
2024/03/04 04:17:57;;;;;;;2.38;0.93;;;8.70;99.90;;;;;;4899717;29;20078;-92
2024/03/04 04:20:27;;;;;;;3.80;0.85;;;8.70;99.90;;;;;;4900234;29;20029;-93
2024/03/04 04:22:52;;;;;;;6.88;1.25;;;8.70;99.90;;;;;;4899846;29;20156;-93
2024/03/04 04:25:18;;;;;;;3.03;0.85;;;8.70;99.90;;;;;;4899543;29;20064;-92
2024/03/04 04:27:45;;;;;;;7.75;1.38;;;8.70;99.90;;;;;;4899537;29;20029;-92
2024/03/04 04:30:11;;;;;;;1.60;0.75;;;8.70;99.90;;;;;;4899880;29;20024;-93
2024/03/04 04:32:37;;;;;;;4.78;0.77;;;8.70;99.90;;;;;;4908185;29;20107;-94
2024/03/04 04:35:04;;;;;;;3.13;0.80;;;8.70;99.90;;;;;;4918399;29;20051;-92
2024/03/04 04:37:30;;;;;;;4.65;1.27;;;8.70;99.90;;;;;;4918796;29;20046;-92
2024/03/04 04:39:57;;;;;;;2.97;0.80;;;8.60;99.90;;;;;;4918545;29;20139;-93
2024/03/04 04:42:23;;;;;;;3.38;1.13;;;8.60;99.90;;;;;;4919707;29;20048;-92
2024/03/04 04:44:48;;;;;;;3.50;1.08;;;8.60;99.90;;;;;;4924295;29;20020;-90
2024/03/04 04:47:14;;;;;;;2.78;1.33;;;8.60;99.90;;;;;;4932605;29;20032;-94
2024/03/04 04:49:40;;;;;;;4.43;1.38;;;8.60;99.90;;;;;;4912299;29;20044;-93
2024/03/04 04:52:06;;;;;;;2.55;1.27;;;8.50;99.90;;;;;;4906631;29;20061;-94
2024/03/04 04:54:31;;;;;;;6.35;0.88;;;8.50;99.90;;;;;;4913812;29;20135;-94
2024/03/04 04:56:57;;;;;;;3.03;0.90;;;8.50;99.90;;;;;;4928770;29;20024;-94
2024/03/04 04:59:22;;;;;;;3.08;0.90;;;8.50;99.90;;;;;;4929181;29;20024;-94
2024/03/04 05:01:48;;;;;;;6.45;1.20;;;8.50;99.90;;;;;;4935843;29;20016;-94
2024/03/04 05:04:18;;;;;;;5.75;1.02;;;8.50;99.90;;;;;;4953439;29;20647;-94
2024/03/04 05:06:47;;;;;;;6.47;0.90;;;8.50;99.90;;;;;;4951741;29;20098;-94
2024/03/04 05:09:13;;;;;;;1.88;0.70;;;8.40;99.90;;;;;;4951877;29;20035;-93
2024/03/04 05:11:38;;;;;;;6.28;0.93;;;8.40;99.90;;;;;;4937290;29;20034;-93
2024/03/04 05:14:08;;;;;;;5.43;1.00;;;8.40;99.90;;;;;;4936345;29;20396;-92
2024/03/04 05:16:33;;;;;;;2.97;0.60;;;8.50;99.90;;;;;;4935025;29;20031;-93
2024/03/04 05:19:00;;;;;;;4.63;1.05;;;8.50;99.90;;;;;;4913370;29;20092;-92
2024/03/04 05:21:26;;;;;;;1.58;0.77;;;8.40;99.90;;;;;;4908241;29;20033;-94
2024/03/04 05:23:51;;;;;;;5.63;1.10;;;8.40;99.90;;;;;;4915802;29;20035;-93
2024/03/04 05:26:17;;;;;;;3.22;0.60;;;8.50;99.90;;;;;;4906161;29;20519;-94
2024/03/04 05:28:42;;;;;;;1.33;0.75;;;8.50;99.90;;;;;;4896094;29;20032;-94
2024/03/04 05:31:08;;;;;;;10.10;1.10;;;8.50;99.90;;;;;;4896950;29;20036;-93
2024/03/04 05:33:36;;;;;;;6.13;0.77;;;8.50;99.90;;;;;;4897511;29;20056;-94
2024/03/04 05:36:04;;;;;;;2.60;0.77;;;8.40;99.90;;;;;;4898151;29;20052;-93
2024/03/04 05:38:31;;;;;;;2.88;0.60;;;8.40;99.90;;;;;;4898688;29;20029;-92
2024/03/04 05:40:57;;;;;;;5.35;0.63;;;8.40;99.90;;;;;;4898619;29;20021;-93
2024/03/04 05:43:22;;;;;;;2.88;0.93;;;8.40;99.90;;;;;;4898958;29;20036;-92
2024/03/04 05:45:48;;;;;;;4.78;0.80;;;8.50;99.90;;;;;;4897748;29;20025;-92
2024/03/04 05:48:14;;;;;;;3.85;0.80;;;8.40;99.90;;;;;;4897544;29;20179;-91
2024/03/04 05:50:40;;;;;;;5.72;1.73;;;8.50;99.90;;;;;;4906775;29;20040;-93
2024/03/04 05:53:05;;;;;;;6.50;0.70;;;8.50;99.90;;;;;;4909801;29;20041;-93
2024/03/04 05:55:31;;;;;;;3.25;1.20;;;8.50;99.90;;;;;;4904621;29;20032;-93
2024/03/04 05:57:56;;;;;;;5.28;0.77;;;8.50;99.90;;;;;;4903278;29;20029;-94
2024/03/04 06:00:22;;;;;;;4.57;1.27;;;8.50;99.90;;;;;;4915343;29;20098;-94
2024/03/04 06:02:47;;;;;;;3.50;0.88;;;8.50;99.90;;;;;;4911352;29;20024;-93
2024/03/04 06:05:13;;;;;;;5.28;1.25;;;8.50;99.90;;;;;;4899803;29;20032;-92
2024/03/04 06:07:40;;;;;;;2.85;0.93;;;8.50;99.90;;;;;;4899597;29;20469;-94
2024/03/04 06:10:06;;;;;;;7.10;1.20;;;8.50;99.90;;;;;;4900477;29;20028;-94
2024/03/04 06:12:32;;;;;;;3.92;1.17;;;8.50;99.90;;;;;;4925890;29;20012;-92
2024/03/04 06:14:58;;;;;;;4.30;1.30;;;8.50;99.90;;;;;;4931255;29;20035;-92
2024/03/04 06:17:24;;;;;;;4.75;0.85;;;8.50;99.90;;;;;;4909528;29;20039;-90
2024/03/04 06:19:49;;;;;;;5.28;0.70;;;8.50;99.90;;;;;;4915558;29;20063;-93
2024/03/04 06:22:15;;;;;;;3.17;1.00;;;8.50;99.90;;;;;;4911781;29;20122;-93
2024/03/04 06:24:41;;;;;;;3.47;1.08;;;8.60;99.90;;;;;;4910275;29;20027;-93
2024/03/04 06:27:07;;;;;;;1.70;0.80;;;8.60;99.90;;;;;;4915050;29;20040;-94
2024/03/04 06:29:33;;;;;;;4.88;0.93;;;8.60;99.90;;;;;;4919471;29;20088;-94
2024/03/04 06:32:03;;;;;;;1.63;0.90;;;8.60;99.90;;;;;;4917956;29;20036;-93
2024/03/04 06:34:34;;;;;;;1.67;0.82;;;8.60;99.90;;;;;;4916035;29;20060;-93
2024/03/04 06:37:00;;;;;;;3.13;0.70;;;8.60;99.90;;;;;;4913918;29;20035;-93
2024/03/04 06:39:27;;;;;;;3.38;1.10;;;8.60;99.90;;;;;;4918162;29;20044;-94
2024/03/04 06:41:53;;;;;;;6.15;0.90;;;8.70;99.90;;;;;;4913576;29;20047;-93
2024/03/04 06:44:18;;;;;;;3.03;0.55;;;8.70;99.90;;;;;;4920533;29;20084;-95
2024/03/04 06:46:44;;;;;;;7.13;1.13;;;8.70;99.90;;;;;;4919515;29;20528;-93
2024/03/04 06:49:10;;;;;;;3.10;0.80;;;8.70;99.90;;;;;;4925241;29;20036;-93
2024/03/04 06:51:36;;;;;;;3.50;0.85;;;8.70;99.90;;;;;;4928365;29;20028;-94
2024/03/04 06:54:03;;;;;;;4.60;0.98;;;9.30;99.90;;;;;;4923476;29;20500;-93
2024/03/04 06:56:30;;;;;;;4.55;0.95;;;8.80;99.90;;;;;;4938721;29;20057;-94
2024/03/04 06:59:00;;;;;;;4.32;1.20;;;8.80;99.90;;;;;;4925459;29;20043;-94
2024/03/04 07:01:26;;;;;;;3.25;0.90;;;8.80;99.90;;;;;;4925908;29;20028;-93
2024/03/04 07:03:53;;;;;;;1.33;0.80;;;8.80;99.90;;;;;;4923592;29;20036;-94
2024/03/04 07:06:19;;;;;;;2.15;0.73;;;8.80;99.90;;;;;;4917593;29;20511;-93
2024/03/04 07:08:44;;;;;;;2.67;1.02;;;8.80;99.90;;;;;;4927583;29;20032;-94
2024/03/04 07:11:10;;;;;;;3.58;0.93;;;8.90;99.90;;;;;;4922488;29;20028;-94
2024/03/04 07:13:37;;;;;;;6.38;1.42;;;8.90;99.90;;;;;;4932660;29;20032;-94
2024/03/04 07:16:05;;;;;;;2.38;1.13;;;8.90;99.90;;;;;;4931823;29;20080;-93
2024/03/04 07:18:37;;;;;;;3.22;1.30;;;8.90;99.90;;;;;;5025454;23;20072;-94
2024/03/04 07:21:03;;;;;;;1.42;1.05;;;9.40;99.90;;;;;;4920542;29;20036;-93
2024/03/04 07:23:28;;;;;;;2.60;1.02;;;8.90;99.90;;;;;;4921178;29;20055;-92
2024/03/04 07:25:54;;;;;;;5.13;1.65;;;9.90;99.90;;;;;;4910412;29;20493;-93
2024/03/04 07:28:20;;;;;;;1.77;0.77;;;9.70;99.90;;;;;;4910776;29;20024;-93
2024/03/04 07:30:49;;;;;;;5.13;1.33;;;8.90;99.90;;;;;;4921445;29;20115;-92
2024/03/04 07:33:15;;;;;;;1.50;0.90;;;8.90;99.90;;;;;;4918164;29;20040;-93
2024/03/04 07:35:43;;;;;;;3.40;1.25;;;9.70;99.90;;;;;;4905305;29;20035;-91
2024/03/04 07:38:10;;;;;;;2.83;0.77;;;8.90;99.90;;;;;;4904182;29;20412;-92
2024/03/04 07:40:36;;;;;;;2.03;0.90;;;8.90;99.90;;;;;;4927966;29;20055;-92
2024/03/04 07:43:02;;;;;;;3.58;1.08;;;8.80;99.90;;;;;;4929461;29;20028;-92
2024/03/04 07:45:31;;;;;;;5.90;1.52;;;8.80;99.90;;;;;;4934198;29;20036;-93
2024/03/04 07:47:56;;;;;;;2.58;1.15;;;8.70;99.90;;;;;;4914827;29;20044;-90
2024/03/04 07:50:23;;;;;;;3.25;1.30;;;8.60;99.90;;;;;;5188757;23;20036;-94
2024/03/04 07:52:49;;;;;;;2.58;0.68;;;8.60;99.90;;;;;;4930449;29;20102;-92
2024/03/04 07:55:15;;;;;;;3.35;1.15;;;9.20;99.90;;;;;;4921435;29;20028;-93
2024/03/04 07:57:44;;;;;;;5.10;1.10;;;9.30;99.90;;;;;;4915696;29;20025;-92
2024/03/04 08:00:13;;;;;;;2.55;0.82;;;8.60;99.90;;;;;;4903186;29;20048;-92
2024/03/04 08:02:43;;;;;;;4.32;1.30;;;8.60;99.90;;;;;;4912476;29;20113;-92
2024/03/04 08:05:10;;;;;;;1.65;0.80;;;9.30;99.90;;;;;;4904522;29;20032;-93
2024/03/04 08:07:37;;;;;;;3.47;1.35;;;8.70;99.90;;;;;;4920874;29;20040;-91
2024/03/04 08:10:03;;;;;;;3.90;1.00;;;8.60;99.90;;;;;;4918080;29;20127;-90
2024/03/04 08:12:29;;;;;;;4.85;0.90;;;8.70;99.90;;;;;;4918589;29;20051;-94
2024/03/04 08:14:54;;;;;;;3.22;0.90;;;8.70;99.90;;;;;;4901854;29;20489;-92
2024/03/04 08:17:24;;;;;;;3.50;0.82;;;8.80;99.90;;;;;;4918537;29;20020;-92
2024/03/04 08:19:52;;;;;;;5.30;1.25;;;8.80;99.90;;;;;;4914177;29;20044;-87
2024/03/04 08:22:17;;;;;;;4.60;1.95;;;8.80;99.90;;;;;;4924876;29;20031;-93
2024/03/04 08:24:43;;;;;;;1.95;1.00;;;9.30;99.90;;;;;;4927349;29;20040;-94
2024/03/04 08:27:09;;;;;;;5.15;1.70;;;8.90;99.90;;;;;;4923402;29;20050;-92
2024/03/04 08:29:35;;;;;;;7.85;1.38;;;8.90;99.90;;;;;;4922429;29;20493;-93
2024/03/04 08:32:01;;;;;;;1.40;0.98;;;8.90;99.90;;;;;;4919621;29;20028;-92
2024/03/04 08:34:29;;;;;;;4.05;0.98;;;9.10;99.90;;;;;;4919531;29;20055;-94
2024/03/04 08:36:54;;;;;;;2.85;0.70;;;8.90;99.90;;;;;;4924993;29;20079;-92
2024/03/04 08:39:20;;;;;;;9.20;0.95;;;8.90;99.90;;;;;;4932844;29;20028;-94
2024/03/04 08:41:46;;;;;;;0.85;0.70;;;9.00;99.90;;;;;;4927181;29;20024;-92
2024/03/04 08:44:15;;;;;;;2.97;0.60;;;9.00;99.90;;;;;;4926386;29;20032;-93
2024/03/04 08:46:41;;;;;;;2.95;0.50;;;9.00;99.90;;;;;;4931318;29;20024;-94
2024/03/04 08:49:08;;;;;;;0.77;0.50;;;9.20;99.90;;;;;;4928110;29;20112;-95
2024/03/04 08:51:33;;;;;;;3.97;1.15;;;9.30;99.90;;;;;;4919330;29;20412;-91
2024/03/04 08:53:59;;;;;;;0.70;0.60;;;9.00;99.90;;;;;;4937762;29;20035;-92
2024/03/04 08:56:24;;;;;;;4.10;0.77;;;9.00;99.90;;;;;;4922352;29;20040;-92
2024/03/04 08:58:50;;;;;;;3.63;0.60;;;9.00;99.90;;;;;;4916398;29;20024;-91
2024/03/04 09:01:17;;;;;;;1.75;0.90;;;9.10;99.90;;;;;;4917928;29;20473;-91
2024/03/04 09:03:43;;;;;;;0.80;0.65;;;9.00;99.90;;;;;;4913550;29;20047;-88
2024/03/04 09:06:19;;;;;;;5.80;1.10;;;9.10;99.90;;;;;;4923829;29;20032;-94
2024/03/04 09:08:45;;;;;;;5.00;1.52;;;9.10;99.90;;;;;;4917774;29;20067;-93
2024/03/04 09:11:11;;;;;;;4.78;1.15;;;9.10;99.90;;;;;;4918176;29;20028;-93
2024/03/04 09:13:37;;;;;;;3.35;1.00;;;9.10;99.90;;;;;;4918038;29;20500;-91
2024/03/04 09:16:04;;;;;;;4.18;1.50;;;9.10;99.90;;;;;;4937039;29;20030;-93
2024/03/04 09:18:30;;;;;;;4.53;0.93;;;9.10;99.90;;;;;;4944544;29;20036;-93
2024/03/04 09:20:56;;;;;;;2.72;1.05;;;9.30;99.90;;;;;;4921816;29;20119;-92
2024/03/04 09:23:23;;;;;;;3.00;0.85;;;9.20;99.90;;;;;;4919644;29;20084;-92
2024/03/04 09:25:49;;;;;;;3.72;0.82;;;9.20;99.90;;;;;;4929605;29;20055;-92
2024/03/04 09:28:15;;;;;;;2.78;1.13;;;9.30;99.90;;;;;;4925266;29;20473;-91
2024/03/04 09:30:41;;;;;;;1.08;0.70;;;9.40;99.90;;;;;;4932055;29;20083;-90
2024/03/04 09:33:07;;;;;;;2.60;1.13;;;9.40;99.90;;;;;;4935376;29;20061;-94
2024/03/04 09:35:39;;;;;;;2.78;0.90;;;9.40;99.90;;;;;;4926165;29;20080;-95
2024/03/04 09:38:06;;;;;;;4.10;1.00;;;9.50;99.90;;;;;;4922177;29;20100;-92
2024/03/04 09:40:31;;;;;;;2.50;0.75;;;9.30;99.90;;;;;;4923428;29;20043;-93
2024/03/04 09:42:57;;;;;;;3.03;1.33;;;9.30;99.90;;;;;;4918224;29;20028;-93
2024/03/04 09:45:26;;;;;;;3.10;1.17;;;9.40;99.90;;;;;;4903557;29;20426;-92
2024/03/04 09:47:55;;;;;;;3.65;1.10;;;9.40;99.90;;;;;;4907648;29;20051;-94
2024/03/04 09:50:22;;;;;;;4.40;1.45;;;9.40;99.90;;;;;;4902992;29;20024;-92
2024/03/04 09:52:49;;;;;;;2.72;1.23;;;9.40;99.90;;;;;;4902558;29;20501;-92
2024/03/04 09:55:15;;;;;;;1.00;0.90;;;9.40;99.90;;;;;;4902569;29;20118;-93
2024/03/04 09:57:41;;;;;;;2.00;0.95;;;9.40;99.90;;;;;;4904471;29;20028;-91
2024/03/04 10:00:14;;;;;;;3.47;1.10;;;9.50;99.90;;;;;;4905431;29;20115;-92
2024/03/04 10:02:41;;;;;;;2.03;1.00;;;9.50;99.90;;;;;;4903975;29;20036;-94
2024/03/04 10:05:08;;;;;;;3.40;0.90;;;9.50;99.90;;;;;;4904851;29;20040;-93
2024/03/04 10:07:35;;;;;;;2.72;0.95;;;9.50;99.90;;;;;;4903378;29;20112;-93
2024/03/04 10:10:02;;;;;;;2.50;1.23;;;9.50;99.90;;;;;;4903504;29;20439;-92
2024/03/04 10:12:28;;;;;;;6.88;1.30;;;9.60;99.90;;;;;;4902738;29;20029;-92
2024/03/04 10:14:59;;;;;;;3.58;1.40;;;9.50;99.90;;;;;;4901877;29;20040;-91
2024/03/04 10:17:27;;;;;;;4.80;1.27;;;9.50;99.90;;;;;;4907261;29;20036;-92
2024/03/04 10:20:11;;;;;;;2.92;1.42;;;9.50;99.90;;;;;;4909330;29;20017;-92
2024/03/04 10:22:42;;;;;;;3.60;1.05;;;9.50;99.90;;;;;;4906848;29;20393;-93
2024/03/04 10:25:12;;;;;;;2.20;1.10;;;9.50;99.90;;;;;;4907109;29;20033;-92
2024/03/04 10:27:39;;;;;;;;;;;9.50;99.90;;;;;;4904106;29;20052;-94
2024/03/04 10:30:11;;;;;;;3.38;1.50;;;9.50;99.90;;;;;;4904814;29;19962;-93
2024/03/04 10:32:45;;;;;;;5.20;1.90;;;9.40;99.90;;;;;;4904272;29;20036;-93
2024/03/04 10:35:11;;;;;;;9.48;3.72;;;9.50;99.90;;;;;;4903177;29;20048;-92
2024/03/04 10:37:36;;;;;;;7.18;3.65;;;9.50;99.90;;;;;;4904248;29;20024;-91
2024/03/04 10:40:04;;;;;;;6.55;3.60;;;9.50;99.90;;;;;;4907476;29;20088;-93
2024/03/04 10:42:29;;;;;;;4.90;3.20;;;9.50;99.90;;;;;;4909991;29;20035;-93
2024/03/04 10:44:57;;;;;;;7.07;3.45;;;9.50;99.90;;;;;;4904757;29;20242;-93
2024/03/04 10:47:22;;;;;;;6.10;3.38;;;9.50;99.90;;;;;;4902634;29;20564;-93
2024/03/04 10:49:51;;;;;;;4.85;3.13;;;9.50;99.90;;;;;;4919343;29;20111;-95
2024/03/04 10:52:17;;;;;;;3.45;2.78;;;9.50;99.90;;;;;;4921400;29;20059;-92
2024/03/04 10:54:43;;;;;;;4.65;3.30;;;9.60;99.90;;;;;;4921671;29;20385;-93
2024/03/04 10:57:30;;;;;;;7.35;3.45;;;9.60;99.90;;;;;;4921241;29;20063;-90
2024/03/04 11:00:25;;;;;;;3.47;3.00;;;9.90;99.90;;;;;;4919320;29;20191;-92
2024/03/04 11:02:56;;;;;;;3.13;2.83;;;9.70;99.90;;;;;;4920628;29;20083;-93
2024/03/04 11:05:23;;;;;;;4.82;2.42;;;9.80;99.90;;;;;;4920533;29;20036;-92
2024/03/04 11:07:50;;;;;;;3.70;2.70;;;9.80;99.90;;;;;;4920240;29;20175;-92
2024/03/04 11:10:23;;;;;;;2.92;2.28;;;9.80;99.90;;;;;;4919101;29;20405;-92
2024/03/04 11:13:01;;;;;;;2.88;2.33;;;9.80;99.90;;;;;;4921089;29;20024;-93
2024/03/04 11:15:30;;;;;;;2.92;2.55;;;9.80;99.90;;;;;;4921234;29;20063;-92
2024/03/04 11:18:00;;;;;;;2.72;2.08;;;9.80;99.90;;;;;;4937899;29;20024;-92
2024/03/04 11:20:28;;;;;;;4.35;2.42;;;9.80;99.90;;;;;;4913908;29;20028;-94
2024/03/04 11:22:54;;;;;;;3.80;2.97;;;9.90;99.90;;;;;;4909472;29;20112;-94
2024/03/04 11:25:20;;;;;;;3.28;2.97;;;9.80;99.90;;;;;;4915207;29;20067;-93
2024/03/04 11:27:46;;;;;;;5.90;3.17;;;9.80;99.90;;;;;;4938922;29;20079;-92
2024/03/04 11:30:12;;;;;;;4.10;2.90;;;9.90;99.90;;;;;;4919839;29;20052;-93
2024/03/04 11:32:38;;;;;;;5.35;3.38;;;9.90;99.90;;;;;;4919020;29;20040;-93
2024/03/04 11:35:10;;;;;;;3.85;3.20;;;9.90;99.90;;;;;;4921084;29;20035;-92
2024/03/04 11:37:53;;;;;;;4.97;3.40;;;10.00;99.90;;;;;;4930404;29;20082;-94
2024/03/04 11:40:28;;;;;;;3.67;3.38;;;10.00;99.90;;;;;;4909833;29;20068;-96
2024/03/04 11:42:53;;;;;;;5.35;3.50;;;10.10;99.90;;;;;;4907822;29;20039;-86
2024/03/04 11:45:42;;;;;;;7.03;3.10;;;10.10;99.90;;;;;;4921970;29;20040;-89
2024/03/04 11:48:27;;;;;;;3.85;3.47;;;10.20;99.90;;;;;;4917452;29;20031;-86
2024/03/04 11:50:52;;;;;;;5.35;4.10;;;10.30;99.90;;;;;;4917532;29;20112;-89
2024/03/04 11:53:27;;;;;;;6.40;3.67;;;10.30;99.90;;;;;;4918796;29;20032;-93
2024/03/04 11:55:53;;;;;;;4.82;4.22;;;10.40;99.90;;;;;;4913553;29;20036;-91
2024/03/04 11:58:20;;;;;;;6.18;3.97;;;10.40;99.90;;;;;;4921290;29;20056;-91
2024/03/04 12:00:47;;;;;;;5.80;4.38;;;10.40;99.90;;;;;;4919600;29;20040;-93
2024/03/04 12:03:15;;;;;;;5.25;3.95;;;10.40;99.90;;;;;;4921036;29;20028;-92
2024/03/04 12:05:41;;;;;;;5.93;4.45;;;10.40;99.90;;;;;;4920219;29;20099;-91
2024/03/04 12:08:08;;;;;;;6.80;4.85;;;10.40;99.90;;;;;;4920201;29;20031;-90
2024/03/04 12:10:34;;;;;;;7.22;4.38;;;10.40;99.90;;;;;;4925030;29;20406;-91
2024/03/04 12:13:00;;;;;;;6.70;4.78;;;10.40;99.90;;;;;;4910289;29;20037;-91
2024/03/04 12:15:25;;;;;;;6.03;4.20;;;11.10;99.90;;;;;;4902562;29;20095;-91
2024/03/04 12:17:52;;;;;;;7.28;5.38;;;10.50;99.90;;;;;;4900461;29;20099;-91
2024/03/04 12:20:20;;;;;;;5.10;4.38;;;10.50;99.90;;;;;;4900508;29;20055;-93
2024/03/04 12:22:45;;;;;;;5.25;4.70;;;10.50;99.90;;;;;;4900133;29;20028;-92
2024/03/04 12:25:11;;;;;;;7.68;5.13;;;10.60;99.90;;;;;;4901527;29;20052;-93
2024/03/04 12:27:41;;;;;;;10.20;5.25;;;10.70;99.90;;;;;;4901519;29;20032;-91
2024/03/04 12:30:16;;;;;;;6.15;4.93;;;11.40;99.90;;;;;;4900857;29;20049;-93
2024/03/04 12:32:42;;;;;;;7.00;5.13;;;10.80;99.90;;;;;;4903301;29;20061;-94
2024/03/04 12:35:22;;;;;;;6.80;5.57;;;11.50;99.90;;;;;;4918756;29;20039;-90
2024/03/04 12:37:51;;;;;;;7.43;5.28;;;11.00;99.90;;;;;;4920215;29;20051;-94
2024/03/04 12:40:18;;;;;;;7.88;5.95;;;11.00;99.90;;;;;;4920850;29;20039;-90
2024/03/04 12:42:50;;;;;;;6.57;5.68;;;11.00;99.90;;;;;;4918268;29;20031;-89
2024/03/04 12:45:15;;;;;;;7.72;5.88;;;11.00;99.90;;;;;;4918268;29;20039;-90
2024/03/04 12:47:41;;;;;;;8.05;5.82;;;11.10;99.90;;;;;;4918318;29;20024;-90
2024/03/04 12:50:07;;;;;;;9.05;6.15;;;11.10;99.90;;;;;;4918048;29;20358;-90
2024/03/04 12:52:34;;;;;;;7.47;5.80;;;11.00;99.90;;;;;;4925513;29;20040;-89
2024/03/04 12:55:00;;;;;;;9.80;6.22;;;11.10;99.90;;;;;;4916368;29;20516;-90